createdAt,value
2022-10-18T00:00:56.670Z,17.82
2022-10-18T00:03:24.443Z,17.55
2022-10-18T00:05:52.689Z,17.56
2022-10-18T00:08:21.715Z,17.31
2022-10-18T00:10:49.779Z,17.18
2022-10-18T00:13:17.528Z,17.04
2022-10-18T00:15:50.457Z,16.52
2022-10-18T00:18:18.690Z,16.57
2022-10-18T00:20:46.615Z,16.86
2022-10-18T00:23:14.331Z,16.92
2022-10-18T00:25:43.364Z,16.80
2022-10-18T00:28:11.160Z,16.82
2022-10-18T00:30:38.957Z,17.00
2022-10-18T00:33:06.667Z,17.12
2022-10-18T00:35:35.867Z,17.02
2022-10-18T00:38:03.532Z,17.22
2022-10-18T00:40:31.215Z,17.21
2022-10-18T00:43:00.313Z,17.13
2022-10-18T00:45:28.145Z,17.08
2022-10-18T00:48:00.966Z,17.08
2022-10-18T00:50:33.234Z,17.04
2022-10-18T00:53:04.641Z,16.12
2022-10-18T00:55:34.084Z,16.88
2022-10-18T00:58:04.275Z,17.47
2022-10-18T01:00:32.193Z,17.51
2022-10-18T01:03:00.367Z,17.37
2022-10-18T01:05:28.171Z,16.96
2022-10-18T01:08:28.386Z,17.13
2022-10-18T01:11:06.341Z,17.20
2022-10-18T01:13:48.628Z,17.22
2022-10-18T01:16:22.217Z,17.49
2022-10-18T01:18:55.818Z,17.34
2022-10-18T01:21:38.225Z,17.68
2022-10-18T01:24:45.882Z,17.67
2022-10-18T01:27:36.619Z,17.86
2022-10-18T01:30:28.288Z,17.55
2022-10-18T01:33:01.605Z,17.00
2022-10-18T01:35:34.754Z,17.21
2022-10-18T01:38:07.044Z,17.43
2022-10-18T01:40:36.492Z,17.40
2022-10-18T01:45:39.862Z,17.70
2022-10-18T01:48:07.918Z,17.29
2022-10-18T01:50:36.223Z,17.12
2022-10-18T01:53:04.259Z,17.00
2022-10-18T01:55:36.664Z,17.08
2022-10-18T01:58:10.032Z,16.68
2022-10-18T02:00:42.687Z,16.70
2022-10-18T02:03:18.191Z,16.68
2022-10-18T02:05:51.225Z,16.53
2022-10-18T02:08:28.969Z,16.61
2022-10-18T02:11:00.904Z,16.66
2022-10-18T02:13:35.273Z,16.78
2022-10-18T02:16:06.213Z,17.07
2022-10-18T02:18:38.257Z,17.26
2022-10-18T02:21:08.543Z,17.33
2022-10-18T02:23:37.142Z,17.48
2022-10-18T02:26:05.534Z,17.44
2022-10-18T02:28:33.323Z,17.53
2022-10-18T02:31:13.274Z,17.07
2022-10-18T02:33:47.382Z,17.10
2022-10-18T02:36:20.937Z,17.25
2022-10-18T02:38:54.318Z,17.34
2022-10-18T02:41:26.180Z,17.52
2022-10-18T02:43:54.827Z,17.39
2022-10-18T02:46:24.494Z,17.37
2022-10-18T02:48:52.265Z,17.17
2022-10-18T02:51:19.950Z,17.14
2022-10-18T02:53:47.717Z,17.25
2022-10-18T02:56:15.417Z,17.43
2022-10-18T02:58:43.160Z,17.34
2022-10-18T03:01:10.939Z,17.30
2022-10-18T03:03:40.066Z,16.98
2022-10-18T03:06:07.836Z,17.21
2022-10-18T03:08:37.143Z,16.97
2022-10-18T03:11:04.847Z,16.95
2022-10-18T03:13:34.017Z,17.17
2022-10-18T03:16:02.371Z,17.30
2022-10-18T03:18:30.138Z,17.39
2022-10-18T03:20:59.155Z,17.31
2022-10-18T03:23:26.822Z,17.45
2022-10-18T03:25:54.604Z,17.39
2022-10-18T03:28:22.234Z,17.10
2022-10-18T03:30:49.907Z,16.68
2022-10-18T03:33:17.690Z,16.81
2022-10-18T03:35:45.459Z,16.97
2022-10-18T03:38:14.475Z,16.88
2022-10-18T03:40:42.138Z,16.63
2022-10-18T03:43:09.945Z,16.87
2022-10-18T03:45:37.686Z,16.75
2022-10-18T03:48:06.016Z,16.84
2022-10-18T03:50:33.849Z,16.88
2022-10-18T03:53:01.550Z,16.80
2022-10-18T03:55:30.580Z,16.59
2022-10-18T03:57:58.425Z,16.68
2022-10-18T04:00:26.195Z,16.85
2022-10-18T04:02:55.972Z,16.96
2022-10-18T04:05:26.865Z,16.74
2022-10-18T04:07:54.762Z,16.84
2022-10-18T04:10:22.503Z,16.35
2022-10-18T04:12:51.587Z,16.35
2022-10-18T04:15:19.369Z,16.74
2022-10-18T04:17:47.223Z,16.90
2022-10-18T04:20:15.088Z,16.97
2022-10-18T04:22:42.864Z,17.45
2022-10-18T04:25:10.557Z,17.10
2022-10-18T04:27:38.405Z,16.42
2022-10-18T04:30:08.885Z,16.79
2022-10-18T04:32:36.554Z,16.85
2022-10-18T04:35:05.175Z,17.25
2022-10-18T04:37:33.420Z,17.21
2022-10-18T04:40:01.243Z,17.53
2022-10-18T04:42:28.969Z,17.65
2022-10-18T04:44:56.618Z,17.79
2022-10-18T04:47:25.771Z,17.81
2022-10-18T04:49:53.411Z,17.69
2022-10-18T04:52:21.078Z,17.61
2022-10-18T04:54:48.707Z,17.33
2022-10-18T04:57:16.888Z,17.58
2022-10-18T04:59:44.528Z,17.50
2022-10-18T05:02:12.281Z,17.42
2022-10-18T05:04:41.358Z,17.44
2022-10-18T05:07:09.026Z,17.24
2022-10-18T05:09:36.755Z,16.93
2022-10-18T05:12:04.812Z,16.97
2022-10-18T05:14:32.475Z,16.89
2022-10-18T05:17:00.135Z,16.80
2022-10-18T05:19:27.880Z,16.57
2022-10-18T05:21:56.924Z,16.89
2022-10-18T05:24:27.008Z,16.99
2022-10-18T05:26:55.687Z,16.87
2022-10-18T05:29:25.659Z,17.15
2022-10-18T05:31:53.378Z,16.88
2022-10-18T05:34:21.852Z,16.58
2022-10-18T05:36:50.014Z,16.80
2022-10-18T05:39:19.079Z,17.20
2022-10-18T05:41:46.761Z,17.23
2022-10-18T05:44:14.398Z,17.33
2022-10-18T05:46:42.241Z,17.37
2022-10-18T05:49:12.992Z,17.21
2022-10-18T05:51:43.133Z,17.28
2022-10-18T05:54:12.616Z,16.74
2022-10-18T05:56:41.742Z,17.03
2022-10-18T05:59:12.032Z,17.19
2022-10-18T06:01:40.870Z,16.93
2022-10-18T06:04:10.046Z,17.25
2022-10-18T06:06:38.766Z,16.96
2022-10-18T06:09:08.473Z,16.86
2022-10-18T06:11:37.171Z,16.97
2022-10-18T06:14:06.232Z,16.89
2022-10-18T06:16:34.074Z,17.08
2022-10-18T06:19:01.787Z,17.11
2022-10-18T06:21:29.499Z,17.28
2022-10-18T06:23:58.673Z,17.71
2022-10-18T06:26:27.793Z,18.02
2022-10-18T06:28:55.618Z,17.54
2022-10-18T06:31:24.784Z,17.80
2022-10-18T06:33:52.479Z,17.86
2022-10-18T06:36:23.065Z,17.85
2022-10-18T06:38:51.483Z,17.73
2022-10-18T06:41:20.394Z,17.99
2022-10-18T06:43:49.612Z,17.91
2022-10-18T06:46:17.751Z,18.02
2022-10-18T06:48:47.256Z,18.37
2022-10-18T06:51:15.348Z,18.44
2022-10-18T06:53:53.499Z,18.20
2022-10-18T06:56:30.988Z,18.41
2022-10-18T07:01:31.561Z,18.42
2022-10-18T07:04:00.732Z,18.34
2022-10-18T07:06:28.576Z,18.63
2022-10-18T07:08:57.026Z,17.20
2022-10-18T07:11:26.589Z,17.08
2022-10-18T07:13:55.394Z,17.56
2022-10-18T07:16:23.305Z,17.74
2022-10-18T07:18:52.460Z,16.88
2022-10-18T07:21:23.233Z,17.27
2022-10-18T07:23:52.282Z,17.32
2022-10-18T07:26:21.407Z,17.13
2022-10-18T07:28:51.378Z,17.36
2022-10-18T07:31:19.205Z,17.66
2022-10-18T07:33:46.924Z,18.04
2022-10-18T07:36:15.044Z,18.19
2022-10-18T07:38:44.614Z,18.48
2022-10-18T07:41:13.880Z,18.72
2022-10-18T07:43:44.421Z,18.95
2022-10-18T07:46:12.629Z,18.54
2022-10-18T07:48:40.437Z,18.49
2022-10-18T07:51:08.623Z,18.67
2022-10-18T07:53:36.895Z,18.43
2022-10-18T07:56:09.774Z,18.54
2022-10-18T07:58:37.686Z,18.60
2022-10-18T08:01:06.404Z,18.53
2022-10-18T08:03:34.343Z,18.18
2022-10-18T08:06:02.672Z,18.52
2022-10-18T08:08:30.871Z,18.93
2022-10-18T08:11:04.116Z,17.88
2022-10-18T08:13:33.681Z,17.02
2022-10-18T08:16:02.297Z,17.63
2022-10-18T08:18:30.532Z,17.11
2022-10-18T08:21:00.319Z,17.05
2022-10-18T08:23:28.011Z,17.21
2022-10-18T08:25:56.042Z,17.55
2022-10-18T08:28:24.029Z,18.25
2022-10-18T08:30:53.097Z,17.64
2022-10-18T08:33:20.798Z,18.08
2022-10-18T08:35:55.991Z,18.61
2022-10-18T08:38:23.738Z,19.01
2022-10-18T08:40:52.025Z,19.22
2022-10-18T08:43:30.845Z,19.25
2022-10-18T08:46:00.731Z,17.53
2022-10-18T08:48:35.104Z,18.36
2022-10-18T08:51:04.976Z,18.23
2022-10-18T08:53:39.960Z,17.17
2022-10-18T08:56:14.726Z,17.37
2022-10-18T08:58:44.802Z,17.32
2022-10-18T09:01:26.788Z,17.19
2022-10-18T09:04:12.175Z,16.67
2022-10-18T09:06:48.960Z,17.33
2022-10-18T09:09:34.164Z,17.42
2022-10-18T09:12:21.432Z,17.04
2022-10-18T09:15:04.744Z,17.84
2022-10-18T09:17:43.427Z,18.17
2022-10-18T09:20:22.839Z,18.00
2022-10-18T09:22:54.505Z,17.55
2022-10-18T09:25:24.582Z,17.84
2022-10-18T09:27:55.827Z,18.02
2022-10-18T09:30:34.220Z,18.35
2022-10-18T09:33:13.042Z,17.95
2022-10-18T09:35:45.753Z,18.50
2022-10-18T09:38:19.013Z,18.52
2022-10-18T09:40:53.516Z,18.48
2022-10-18T09:43:25.090Z,19.23
2022-10-18T09:45:55.372Z,19.82
2022-10-18T09:48:28.941Z,19.97
2022-10-18T09:51:01.871Z,19.59
2022-10-18T09:53:37.620Z,19.64
2022-10-18T09:56:08.719Z,19.19
2022-10-18T09:58:44.050Z,19.51
2022-10-18T10:01:15.041Z,19.74
2022-10-18T10:03:44.179Z,19.81
2022-10-18T10:06:24.792Z,19.29
2022-10-18T10:08:59.273Z,19.32
2022-10-18T10:11:32.441Z,19.73
2022-10-18T10:14:09.356Z,19.76
2022-10-18T10:16:54.778Z,19.98
2022-10-18T10:19:29.940Z,20.37
2022-10-18T10:22:02.777Z,20.20
2022-10-18T10:24:38.073Z,21.05
2022-10-18T10:27:08.254Z,21.79
2022-10-18T10:29:53.633Z,21.96
2022-10-18T10:32:23.700Z,21.63
2022-10-18T10:34:53.379Z,21.65
2022-10-18T10:37:30.983Z,22.38
2022-10-18T10:40:19.625Z,22.67
2022-10-18T10:43:19.559Z,22.01
2022-10-18T10:46:01.455Z,21.63
2022-10-18T10:48:33.592Z,21.96
2022-10-18T10:51:07.387Z,22.86
2022-10-18T10:53:39.774Z,22.20
2022-10-18T10:56:23.414Z,21.66
2022-10-18T10:58:53.349Z,20.97
2022-10-18T11:01:30.188Z,21.55
2022-10-18T11:04:00.188Z,21.67
2022-10-18T11:06:40.309Z,21.68
2022-10-18T11:09:20.326Z,22.13
2022-10-18T11:12:00.558Z,22.15
2022-10-18T11:14:31.966Z,21.77
2022-10-18T11:17:08.114Z,22.77
2022-10-18T11:19:43.760Z,21.98
2022-10-18T11:22:18.065Z,22.48
2022-10-18T11:24:45.774Z,23.28
2022-10-18T11:27:20.515Z,22.63
2022-10-18T11:29:59.905Z,22.33
2022-10-18T11:32:35.601Z,22.98
2022-10-18T11:35:17.987Z,22.87
2022-10-18T11:37:59.351Z,23.04
2022-10-18T11:40:39.056Z,24.46
2022-10-18T11:43:17.319Z,24.63
2022-10-18T11:45:55.728Z,24.58
2022-10-18T11:48:42.282Z,24.97
2022-10-18T11:51:16.500Z,23.24
2022-10-18T11:53:59.207Z,21.52
2022-10-18T11:56:36.466Z,22.76
2022-10-18T11:59:26.438Z,23.44
2022-10-18T12:02:04.800Z,23.29
2022-10-18T12:04:40.933Z,23.65
2022-10-18T12:07:21.216Z,22.91
2022-10-18T12:09:55.852Z,23.21
2022-10-18T12:12:28.646Z,23.02
2022-10-18T12:15:00.401Z,22.97
2022-10-18T12:17:47.550Z,23.14
2022-10-18T12:20:22.196Z,22.57
2022-10-18T12:22:54.508Z,21.84
2022-10-18T12:25:24.415Z,22.75
2022-10-18T12:27:57.169Z,22.47
2022-10-18T12:30:31.218Z,21.67
2022-10-18T12:33:23.508Z,21.21
2022-10-18T12:36:02.048Z,21.28
2022-10-18T12:38:31.753Z,21.10
2022-10-18T12:41:01.741Z,21.68
2022-10-18T12:43:36.376Z,22.48
2022-10-18T12:46:12.249Z,21.77
2022-10-18T12:48:45.503Z,21.36
2022-10-18T12:51:16.139Z,21.86
2022-10-18T12:53:46.088Z,23.68
2022-10-18T12:56:50.781Z,24.14
2022-10-18T12:59:53.722Z,22.91
2022-10-18T13:02:24.597Z,23.72
2022-10-18T13:04:52.477Z,23.86
2022-10-18T13:07:33.297Z,24.15
2022-10-18T13:10:34.192Z,22.22
2022-10-18T13:13:38.572Z,21.80
2022-10-18T13:16:23.893Z,21.79
2022-10-18T13:18:55.539Z,21.76
2022-10-18T13:21:32.431Z,22.41
2022-10-18T13:24:18.165Z,22.30
2022-10-18T13:27:17.485Z,21.68
2022-10-18T13:30:03.344Z,22.06
2022-10-18T13:32:37.863Z,21.39
2022-10-18T13:35:44.264Z,21.40
2022-10-18T13:38:31.680Z,22.08
